Time;durP1;ratioP1;P1;durP2;ratioP2;P2;SDS_P1;SDS_P2;PMS_P1;PMS_P2;Temp;Humidity;BMP_temperature;BMP_pressure;BME280_temperature;BME280_humidity;BME280_pressure;Samples;Min_cycle;Max_cycle;Signal;HPM_P1;HPM_P2
2021/04/25 00:00:26;;;;;;;11.07;5.27;;;;;;;;;;4992784;28;20198;-68
2021/04/25 00:02:51;;;;;;;10.50;4.87;;;;;;;;;;4995033;28;20692;-67
2021/04/25 00:05:18;;;;;;;11.53;5.60;;;;;;;;;;4998759;28;20239;-68
2021/04/25 00:07:44;;;;;;;10.87;4.83;;;;;;;;;;5002228;28;21197;-68
2021/04/25 00:10:11;;;;;;;13.27;6.00;;;;;;;;;;5000400;28;20191;-67
2021/04/25 00:12:37;;;;;;;10.77;5.27;;;;;;;;;;5001094;28;20246;-67
2021/04/25 00:15:04;;;;;;;10.57;5.37;;;;;;;;;;4995061;28;20306;-67
2021/04/25 00:17:29;;;;;;;12.50;5.03;;;;;;;;;;4994625;28;20222;-67
2021/04/25 00:19:55;;;;;;;12.47;5.07;;;;;;;;;;4997076;28;20597;-67
2021/04/25 00:22:21;;;;;;;10.63;5.10;;;;;;;;;;4988139;28;20191;-67
2021/04/25 00:24:46;;;;;;;10.30;5.27;;;;;;;;;;4997247;28;20631;-67
2021/04/25 00:27:12;;;;;;;9.47;5.40;;;;;;;;;;4990567;28;20206;-67
2021/04/25 00:29:37;;;;;;;10.50;5.60;;;;;;;;;;5000933;28;20202;-67
2021/04/25 00:32:03;;;;;;;10.13;5.07;;;;;;;;;;4989936;28;20205;-68
2021/04/25 00:34:28;;;;;;;13.97;5.67;;;;;;;;;;5006774;28;20278;-68
2021/04/25 00:36:53;;;;;;;12.30;4.70;;;;;;;;;;4992005;28;20214;-68
2021/04/25 00:39:19;;;;;;;10.50;5.03;;;;;;;;;;4996550;28;20202;-68
2021/04/25 00:41:44;;;;;;;11.40;5.10;;;;;;;;;;4992769;28;21303;-69
2021/04/25 00:44:10;;;;;;;11.83;5.20;;;;;;;;;;4998186;28;20210;-67
2021/04/25 00:46:37;;;;;;;12.23;4.50;;;;;;;;;;4999803;28;20390;-69
2021/04/25 00:49:02;;;;;;;10.90;4.50;;;;;;;;;;4989477;28;20337;-67
2021/04/25 00:51:28;;;;;;;11.97;5.07;;;;;;;;;;5002762;28;20277;-68
2021/04/25 00:53:55;;;;;;;10.50;4.20;;;;;;;;;;4990888;28;20269;-68
2021/04/25 00:56:22;;;;;;;12.10;4.70;;;;;;;;;;4995857;28;20201;-68
2021/04/25 00:58:48;;;;;;;12.63;3.97;;;;;;;;;;4991159;28;20985;-68
2021/04/25 01:01:14;;;;;;;8.57;3.80;;;;;;;;;;4998894;28;20210;-68
2021/04/25 01:03:40;;;;;;;12.30;4.07;;;;;;;;;;4999026;28;20236;-68
2021/04/25 01:06:05;;;;;;;13.43;3.60;;;;;;;;;;4995338;28;20646;-68
2021/04/25 01:08:30;;;;;;;11.37;3.63;;;;;;;;;;4990180;28;20695;-68
2021/04/25 01:10:56;;;;;;;12.73;3.17;;;;;;;;;;4997072;28;20269;-68
2021/04/25 01:13:21;;;;;;;9.03;3.23;;;;;;;;;;4993063;28;20671;-68
2021/04/25 01:15:46;;;;;;;9.13;3.43;;;;;;;;;;4993658;28;20595;-68
2021/04/25 01:18:12;;;;;;;10.57;3.40;;;;;;;;;;4998552;28;20203;-69
2021/04/25 01:20:38;;;;;;;11.00;3.70;;;;;;;;;;4991209;28;20195;-68
2021/04/25 01:23:03;;;;;;;10.33;3.53;;;;;;;;;;5003355;28;20181;-68
2021/04/25 01:25:29;;;;;;;7.73;3.30;;;;;;;;;;4993592;28;20190;-68
2021/04/25 01:27:55;;;;;;;8.97;3.20;;;;;;;;;;4991487;28;20663;-68
2021/04/25 01:30:27;;;;;;;11.47;3.57;;;;;;;;;;4991364;28;20186;-68
2021/04/25 01:32:52;;;;;;;12.67;3.20;;;;;;;;;;4993895;28;20179;-68
2021/04/25 01:35:23;;;;;;;9.13;3.77;;;;;;;;;;4983125;28;20543;-68
2021/04/25 01:37:54;;;;;;;9.73;3.33;;;;;;;;;;4993270;28;20223;-68
2021/04/25 01:40:22;;;;;;;8.57;2.70;;;;;;;;;;4986685;28;20201;-68
2021/04/25 01:42:47;;;;;;;7.57;2.93;;;;;;;;;;5001749;28;20197;-68
2021/04/25 01:45:16;;;;;;;6.70;3.00;;;;;;;;;;4982752;28;20231;-68
2021/04/25 01:47:51;;;;;;;8.07;3.07;;;;;;;;;;4995950;28;20183;-68
2021/04/25 01:50:18;;;;;;;6.73;3.20;;;;;;;;;;4994111;28;20187;-68
2021/04/25 01:52:44;;;;;;;8.03;3.50;;;;;;;;;;4999159;28;20188;-68
2021/04/25 01:55:10;;;;;;;8.00;3.13;;;;;;;;;;5000060;28;20191;-68
2021/04/25 01:57:36;;;;;;;9.37;3.47;;;;;;;;;;4989640;28;20269;-68
2021/04/25 02:00:05;;;;;;;9.50;3.37;;;;;;;;;;4998909;28;20285;-69
2021/04/25 02:02:30;;;;;;;5.20;2.90;;;;;;;;;;4987055;28;20218;-69
2021/04/25 02:04:56;;;;;;;6.70;2.93;;;;;;;;;;5002732;28;20187;-69
2021/04/25 02:07:21;;;;;;;7.33;3.10;;;;;;;;;;4988952;28;20199;-68
2021/04/25 02:09:46;;;;;;;7.63;3.20;;;;;;;;;;4999833;28;20184;-69
2021/04/25 02:12:14;;;;;;;12.43;3.70;;;;;;;;;;4987157;28;20199;-68
2021/04/25 02:14:40;;;;;;;7.93;3.30;;;;;;;;;;4992569;28;20265;-68
2021/04/25 02:17:05;;;;;;;10.17;3.23;;;;;;;;;;4989174;28;20670;-68
2021/04/25 02:19:30;;;;;;;10.50;3.40;;;;;;;;;;5015298;28;20199;-68
2021/04/25 02:21:55;;;;;;;7.07;3.10;;;;;;;;;;4986819;28;20206;-68
2021/04/25 02:24:21;;;;;;;8.80;3.20;;;;;;;;;;5003402;28;20214;-68
2021/04/25 02:26:46;;;;;;;11.30;3.77;;;;;;;;;;4991403;28;20190;-68
2021/04/25 02:29:12;;;;;;;10.17;3.60;;;;;;;;;;4990440;28;20192;-68
2021/04/25 02:31:37;;;;;;;6.40;3.30;;;;;;;;;;4994560;28;20187;-68
2021/04/25 02:34:03;;;;;;;7.53;3.23;;;;;;;;;;4988641;28;20195;-68
2021/04/25 02:36:28;;;;;;;9.57;3.33;;;;;;;;;;4994529;28;20195;-68
2021/04/25 02:38:54;;;;;;;8.57;3.30;;;;;;;;;;4983336;28;20287;-69
2021/04/25 02:41:19;;;;;;;7.40;2.83;;;;;;;;;;4993525;28;20210;-68
2021/04/25 02:43:45;;;;;;;11.37;3.40;;;;;;;;;;4993606;28;20191;-68
2021/04/25 02:46:10;;;;;;;6.77;2.97;;;;;;;;;;5009573;28;20333;-69
2021/04/25 02:48:36;;;;;;;9.77;3.10;;;;;;;;;;4982068;28;20188;-68
2021/04/25 02:51:01;;;;;;;14.03;3.53;;;;;;;;;;4994346;28;20203;-68
2021/04/25 02:53:26;;;;;;;11.37;3.20;;;;;;;;;;4985340;28;20217;-68
2021/04/25 02:55:52;;;;;;;9.00;2.93;;;;;;;;;;4991161;28;20198;-68
2021/04/25 02:58:17;;;;;;;8.37;2.63;;;;;;;;;;4995225;28;20294;-68
2021/04/25 03:00:42;;;;;;;9.43;2.70;;;;;;;;;;4985865;28;20199;-68
2021/04/25 03:03:08;;;;;;;10.93;2.33;;;;;;;;;;5000276;28;20245;-68
2021/04/25 03:05:33;;;;;;;8.57;2.20;;;;;;;;;;4985626;28;20261;-68
2021/04/25 03:07:59;;;;;;;5.00;1.80;;;;;;;;;;4987672;28;20194;-68
2021/04/25 03:10:25;;;;;;;8.70;2.00;;;;;;;;;;4992370;28;20196;-68
2021/04/25 03:12:51;;;;;;;6.60;1.80;;;;;;;;;;4990839;28;20183;-68
2021/04/25 03:15:17;;;;;;;6.73;1.80;;;;;;;;;;4983968;28;20191;-68
2021/04/25 03:17:43;;;;;;;7.83;1.70;;;;;;;;;;4994963;28;20175;-68
2021/04/25 03:20:11;;;;;;;6.37;1.67;;;;;;;;;;4990066;28;20195;-68
2021/04/25 03:22:37;;;;;;;6.67;1.67;;;;;;;;;;4993662;28;20182;-68
2021/04/25 03:25:03;;;;;;;10.07;2.17;;;;;;;;;;4991587;28;20233;-68
2021/04/25 03:27:28;;;;;;;6.10;1.60;;;;;;;;;;4998068;28;20274;-68
2021/04/25 03:29:54;;;;;;;8.43;1.77;;;;;;;;;;4992051;28;20693;-68
2021/04/25 03:32:19;;;;;;;9.07;2.00;;;;;;;;;;4989315;28;20195;-69
2021/04/25 03:34:45;;;;;;;8.97;2.20;;;;;;;;;;4989983;28;20187;-69
2021/04/25 03:37:10;;;;;;;5.73;1.87;;;;;;;;;;4985711;28;20644;-68
2021/04/25 03:39:36;;;;;;;7.07;1.63;;;;;;;;;;4992840;28;20236;-67
2021/04/25 03:42:02;;;;;;;10.30;2.10;;;;;;;;;;4988484;28;20269;-68
2021/04/25 03:44:27;;;;;;;8.33;1.67;;;;;;;;;;4989736;28;20210;-68
2021/04/25 03:46:52;;;;;;;7.00;1.90;;;;;;;;;;4985698;28;20231;-68
2021/04/25 03:49:21;;;;;;;6.40;2.30;;;;;;;;;;4995988;28;20221;-68
2021/04/25 03:51:50;;;;;;;9.70;2.10;;;;;;;;;;4987827;28;20629;-68
2021/04/25 03:54:16;;;;;;;6.20;1.90;;;;;;;;;;4998584;28;20683;-68
2021/04/25 03:56:42;;;;;;;5.90;2.10;;;;;;;;;;4988150;28;27281;-68
2021/04/25 03:59:08;;;;;;;8.10;2.40;;;;;;;;;;5000255;28;20229;-68
2021/04/25 04:01:33;;;;;;;9.07;1.90;;;;;;;;;;4984454;28;20198;-68
2021/04/25 04:03:58;;;;;;;5.10;1.57;;;;;;;;;;4993133;28;20207;-68
2021/04/25 04:06:24;;;;;;;8.97;2.53;;;;;;;;;;4994191;28;20680;-68
2021/04/25 04:08:49;;;;;;;8.57;1.67;;;;;;;;;;4986202;28;20182;-68
2021/04/25 04:11:14;;;;;;;8.30;2.07;;;;;;;;;;4995870;28;20195;-68
2021/04/25 04:13:40;;;;;;;11.37;2.07;;;;;;;;;;4991211;28;20194;-68
2021/04/25 04:16:05;;;;;;;7.00;2.00;;;;;;;;;;4994145;28;20217;-68
2021/04/25 04:18:31;;;;;;;6.33;1.80;;;;;;;;;;4983187;28;20219;-68
2021/04/25 04:20:56;;;;;;;4.53;1.70;;;;;;;;;;4994264;28;20195;-68
2021/04/25 04:23:22;;;;;;;8.10;1.77;;;;;;;;;;4991321;28;20976;-68
2021/04/25 04:25:47;;;;;;;9.00;2.13;;;;;;;;;;4993979;28;20191;-68
2021/04/25 04:28:13;;;;;;;7.27;2.10;;;;;;;;;;4983892;28;20260;-68
2021/04/25 04:30:38;;;;;;;10.03;1.67;;;;;;;;;;4993044;28;20191;-68
2021/04/25 04:33:04;;;;;;;5.53;1.50;;;;;;;;;;4992257;28;20737;-68
2021/04/25 04:35:29;;;;;;;8.03;1.93;;;;;;;;;;4983568;28;20695;-68
2021/04/25 04:37:55;;;;;;;5.43;1.30;;;;;;;;;;4995553;28;20261;-68
2021/04/25 04:40:20;;;;;;;9.53;1.43;;;;;;;;;;4982509;28;20191;-68
2021/04/25 04:42:45;;;;;;;6.97;1.50;;;;;;;;;;4991307;28;20304;-68
2021/04/25 04:45:13;;;;;;;7.17;1.57;;;;;;;;;;4982081;28;20325;-68
2021/04/25 04:47:40;;;;;;;7.03;1.73;;;;;;;;;;4991705;28;20666;-68
2021/04/25 04:50:06;;;;;;;9.20;2.03;;;;;;;;;;4983381;28;20190;-67
2021/04/25 04:52:31;;;;;;;8.07;1.70;;;;;;;;;;4994354;28;20179;-68
2021/04/25 04:54:57;;;;;;;10.00;2.50;;;;;;;;;;4981023;28;20183;-68
2021/04/25 04:57:23;;;;;;;11.73;1.70;;;;;;;;;;4992603;28;20191;-68
2021/04/25 04:59:49;;;;;;;5.70;1.30;;;;;;;;;;4983937;28;20211;-69
2021/04/25 05:02:15;;;;;;;11.10;2.17;;;;;;;;;;4990294;28;20631;-68
2021/04/25 05:04:41;;;;;;;7.63;1.30;;;;;;;;;;4991172;28;20188;-68
2021/04/25 05:07:06;;;;;;;12.50;1.90;;;;;;;;;;4983237;28;20318;-68
2021/04/25 05:09:31;;;;;;;9.93;1.60;;;;;;;;;;4995854;28;20222;-68
2021/04/25 05:11:57;;;;;;;5.70;1.57;;;;;;;;;;4982669;28;20506;-69
2021/04/25 05:14:24;;;;;;;8.60;1.60;;;;;;;;;;4994717;28;20191;-69
2021/04/25 05:16:50;;;;;;;4.87;1.60;;;;;;;;;;4981600;28;20210;-69
2021/04/25 05:19:15;;;;;;;6.53;1.83;;;;;;;;;;4992254;28;20683;-69
2021/04/25 05:21:41;;;;;;;6.90;1.70;;;;;;;;;;4985714;28;20193;-68
2021/04/25 05:24:07;;;;;;;8.20;1.90;;;;;;;;;;4994098;28;20499;-68
2021/04/25 05:26:33;;;;;;;9.30;2.10;;;;;;;;;;4983711;28;20274;-68
2021/04/25 05:28:58;;;;;;;6.40;1.37;;;;;;;;;;4992549;28;20266;-69
2021/04/25 05:31:23;;;;;;;8.90;1.53;;;;;;;;;;4989494;28;20207;-69
2021/04/25 05:33:49;;;;;;;6.97;1.63;;;;;;;;;;4992779;28;20238;-68
2021/04/25 05:36:14;;;;;;;13.03;1.77;;;;;;;;;;4292991;28;10000834;-68
2021/04/25 05:38:39;;;;;;;11.80;1.60;;;;;;;;;;4989879;28;20234;-69
2021/04/25 05:41:05;;;;;;;9.97;1.67;;;;;;;;;;4988961;28;20191;-72
2021/04/25 05:43:30;;;;;;;10.00;1.50;;;;;;;;;;4979149;28;20183;-68
2021/04/25 05:45:56;;;;;;;5.07;1.43;;;;;;;;;;4990144;28;20227;-69
2021/04/25 05:48:22;;;;;;;11.23;1.73;;;;;;;;;;4981763;28;20205;-68
2021/04/25 05:50:47;;;;;;;8.07;1.63;;;;;;;;;;4992543;28;20203;-68
2021/04/25 05:53:13;;;;;;;11.50;1.60;;;;;;;;;;4981656;28;20191;-68
2021/04/25 05:55:38;;;;;;;7.43;1.60;;;;;;;;;;4990625;28;20192;-68
2021/04/25 05:58:03;;;;;;;7.43;1.90;;;;;;;;;;4979008;28;20211;-69
2021/04/25 06:00:30;;;;;;;12.27;1.63;;;;;;;;;;4991447;28;20183;-69
2021/04/25 06:02:56;;;;;;;9.80;1.87;;;;;;;;;;4981458;28;20668;-68
2021/04/25 06:05:22;;;;;;;4.67;1.30;;;;;;;;;;4988939;28;20206;-68
2021/04/25 06:07:51;;;;;;;6.73;1.67;;;;;;;;;;4989106;28;20663;-69
2021/04/25 06:10:18;;;;;;;9.53;1.80;;;;;;;;;;4988673;28;20225;-69
2021/04/25 06:12:47;;;;;;;9.53;1.20;;;;;;;;;;4990803;28;20194;-69
2021/04/25 06:15:13;;;;;;;9.27;1.50;;;;;;;;;;4979975;28;20573;-69
2021/04/25 06:17:38;;;;;;;8.67;1.60;;;;;;;;;;4990939;28;20195;-69
2021/04/25 06:20:04;;;;;;;8.30;1.30;;;;;;;;;;4982219;28;20194;-68
2021/04/25 06:22:30;;;;;;;8.10;1.83;;;;;;;;;;4990579;28;20191;-68
2021/04/25 06:24:55;;;;;;;9.93;1.60;;;;;;;;;;4982086;28;20298;-68
2021/04/25 06:27:24;;;;;;;6.97;1.17;;;;;;;;;;4988704;28;20222;-68
2021/04/25 06:29:49;;;;;;;8.43;1.73;;;;;;;;;;4982472;28;20182;-68
2021/04/25 06:32:15;;;;;;;9.00;1.27;;;;;;;;;;4993826;28;20191;-68
2021/04/25 06:34:40;;;;;;;13.20;1.37;;;;;;;;;;4987217;28;20545;-68
2021/04/25 06:37:06;;;;;;;8.70;1.43;;;;;;;;;;4988955;28;20618;-69
2021/04/25 06:39:31;;;;;;;7.60;1.10;;;;;;;;;;4982722;28;20261;-68
2021/04/25 06:41:56;;;;;;;7.20;1.30;;;;;;;;;;4996769;28;20241;-68
2021/04/25 06:44:22;;;;;;;6.53;1.10;;;;;;;;;;4988285;28;20326;-69
2021/04/25 06:46:47;;;;;;;9.40;1.50;;;;;;;;;;4980417;28;20227;-69
2021/04/25 06:49:12;;;;;;;7.07;1.40;;;;;;;;;;4988030;28;20191;-69
2021/04/25 06:51:38;;;;;;;10.87;1.20;;;;;;;;;;4992774;28;20562;-69
2021/04/25 06:54:04;;;;;;;14.00;2.03;;;;;;;;;;4993115;28;20187;-69
2021/04/25 06:56:29;;;;;;;9.77;1.30;;;;;;;;;;4980308;28;20202;-68
2021/04/25 06:58:55;;;;;;;12.20;1.40;;;;;;;;;;4988937;28;20207;-68
2021/04/25 07:01:21;;;;;;;5.80;1.30;;;;;;;;;;4983113;28;20194;-69
2021/04/25 07:03:49;;;;;;;9.30;1.50;;;;;;;;;;4987880;28;20223;-68
2021/04/25 07:06:14;;;;;;;9.83;1.20;;;;;;;;;;4987739;28;20199;-68
2021/04/25 07:08:40;;;;;;;6.40;1.70;;;;;;;;;;4988719;28;20183;-68
2021/04/25 07:11:06;;;;;;;7.37;1.53;;;;;;;;;;4978972;28;20288;-69
2021/04/25 07:13:31;;;;;;;10.60;1.20;;;;;;;;;;4988195;28;20326;-69
2021/04/25 07:15:57;;;;;;;7.33;1.30;;;;;;;;;;4991181;28;20270;-69
2021/04/25 07:18:22;;;;;;;9.57;1.07;;;;;;;;;;4979436;28;20207;-69
2021/04/25 07:20:48;;;;;;;9.10;1.30;;;;;;;;;;4991540;28;20191;-69
2021/04/25 07:23:13;;;;;;;7.10;1.33;;;;;;;;;;4982329;28;20199;-69
2021/04/25 07:25:39;;;;;;;6.43;1.37;;;;;;;;;;4993157;28;20182;-68
2021/04/25 07:28:04;;;;;;;13.20;1.63;;;;;;;;;;4982967;28;20187;-69
2021/04/25 07:30:30;;;;;;;10.52;1.15;;;;;;;;;;4987556;28;20189;-69
2021/04/25 07:32:55;;;;;;;13.47;1.83;;;;;;;;;;4979747;28;20554;-69
2021/04/25 07:35:21;;;;;;;6.43;1.60;;;;;;;;;;4987920;28;20183;-68
2021/04/25 07:37:48;;;;;;;6.53;1.60;;;;;;;;;;4985456;28;20237;-67
2021/04/25 07:40:14;;;;;;;9.23;1.53;;;;;;;;;;4989492;28;20232;-68
2021/04/25 07:42:40;;;;;;;7.35;1.17;;;;;;;;;;4981163;28;20191;-69
2021/04/25 07:45:12;;;;;;;7.72;1.20;;;;;;;;;;4989761;28;20187;-69
2021/04/25 07:47:38;;;;;;;9.33;1.57;;;;;;;;;;4992446;28;20193;-69
2021/04/25 07:50:04;;;;;;;10.33;1.30;;;;;;;;;;4983835;28;20178;-69
2021/04/25 07:52:30;;;;;;;10.47;1.60;;;;;;;;;;4989994;28;20265;-69
2021/04/25 07:54:55;;;;;;;9.27;1.10;;;;;;;;;;4983539;28;20623;-69
2021/04/25 07:57:20;;;;;;;6.70;1.45;;;;;;;;;;4992071;28;20244;-69
2021/04/25 07:59:47;;;;;;;10.73;1.37;;;;;;;;;;4982087;28;20228;-69
2021/04/25 08:02:13;;;;;;;7.47;1.80;;;;;;;;;;4989912;28;20215;-69
2021/04/25 08:04:38;;;;;;;6.20;1.40;;;;;;;;;;4981355;28;20249;-69
2021/04/25 08:07:04;;;;;;;8.33;1.40;;;;;;;;;;4994813;28;20207;-69
2021/04/25 08:09:29;;;;;;;9.13;1.50;;;;;;;;;;4981986;28;20189;-68
2021/04/25 08:11:55;;;;;;;7.70;1.40;;;;;;;;;;4993859;28;20722;-69
2021/04/25 08:14:21;;;;;;;9.27;2.00;;;;;;;;;;4985800;28;20195;-69
2021/04/25 08:16:46;;;;;;;9.80;1.70;;;;;;;;;;4989548;28;20202;-69
2021/04/25 08:19:12;;;;;;;8.23;1.48;;;;;;;;;;4982556;28;20577;-69
2021/04/25 08:21:37;;;;;;;6.13;1.20;;;;;;;;;;4987331;28;20187;-69
2021/04/25 08:24:03;;;;;;;5.57;1.50;;;;;;;;;;4994430;28;20189;-68
2021/04/25 08:26:28;;;;;;;6.20;1.10;;;;;;;;;;4994218;28;20256;-70
2021/04/25 08:28:54;;;;;;;7.43;1.53;;;;;;;;;;4998154;28;20183;-69
2021/04/25 08:31:20;;;;;;;10.00;1.50;;;;;;;;;;4986627;28;20199;-68
2021/04/25 08:33:46;;;;;;;6.63;1.25;;;;;;;;;;4997619;28;20191;-68
2021/04/25 08:36:11;;;;;;;7.07;1.33;;;;;;;;;;4983403;28;20677;-69
2021/04/25 08:38:36;;;;;;;4.63;1.40;;;;;;;;;;4998312;28;20731;-68
2021/04/25 08:41:04;;;;;;;8.18;1.40;;;;;;;;;;4993052;28;20244;-68
2021/04/25 08:43:30;;;;;;;9.20;1.27;;;;;;;;;;4994672;28;20270;-68
2021/04/25 08:45:58;;;;;;;11.10;1.45;;;;;;;;;;4982711;28;20238;-69
2021/04/25 08:48:25;;;;;;;5.90;1.38;;;;;;;;;;4994928;28;20196;-68
2021/04/25 08:50:51;;;;;;;8.80;1.52;;;;;;;;;;4990479;28;20171;-68
2021/04/25 08:53:19;;;;;;;6.13;1.08;;;;;;;;;;4995466;28;20244;-68
2021/04/25 08:55:44;;;;;;;11.20;1.67;;;;;;;;;;4997745;28;20538;-68
2021/04/25 08:58:10;;;;;;;10.15;1.35;;;;;;;;;;4986846;28;20206;-68
2021/04/25 09:00:35;;;;;;;4.60;1.27;;;;;;;;;;5002112;28;20183;-68
2021/04/25 09:03:00;;;;;;;6.63;1.75;;;;;;;;;;4989405;28;21335;-68
2021/04/25 09:05:26;;;;;;;7.35;1.58;;;;;;;;;;5000671;28;20412;-68
2021/04/25 09:07:59;;;;;;;9.45;1.35;;;;;;;;;;4984009;28;20563;-67
2021/04/25 09:10:33;;;;;;;7.13;1.42;;;;;;;;;;4993261;28;20249;-68
2021/04/25 09:12:59;;;;;;;11.95;1.75;;;;;;;;;;4988563;28;20199;-67
2021/04/25 09:15:30;;;;;;;7.45;1.25;;;;;;;;;;4995057;28;20249;-68
2021/04/25 09:17:58;;;;;;;9.63;1.30;;;;;;;;;;4985466;28;20201;-68
2021/04/25 09:20:35;;;;;;;6.35;1.23;;;;;;;;;;4993787;28;20646;-68
2021/04/25 09:23:02;;;;;;;6.22;1.10;;;;;;;;;;4986700;28;20183;-68
2021/04/25 09:25:27;;;;;;;5.85;1.15;;;;;;;;;;4999349;28;20269;-69
2021/04/25 09:27:53;;;;;;;7.55;1.67;;;;;;;;;;4985675;28;20309;-68
2021/04/25 09:30:24;;;;;;;5.20;0.98;;;;;;;;;;4994804;28;20210;-68
2021/04/25 09:33:00;;;;;;;7.45;1.42;;;;;;;;;;4995783;28;20202;-68
2021/04/25 09:35:26;;;;;;;6.88;1.50;;;;;;;;;;4989594;28;20250;-67
2021/04/25 09:37:51;;;;;;;7.18;1.10;;;;;;;;;;4994345;28;20186;-67
2021/04/25 09:40:24;;;;;;;15.02;1.20;;;;;;;;;;4988935;28;20647;-67
2021/04/25 09:43:01;;;;;;;6.22;1.20;;;;;;;;;;4995906;28;20195;-67
2021/04/25 09:45:57;;;;;;;5.63;1.42;;;;;;;;;;4984457;28;20314;-67
2021/04/25 09:48:22;;;;;;;7.78;1.52;;;;;;;;;;4994299;28;20230;-68
2021/04/25 09:51:07;;;;;;;6.30;1.20;;;;;;;;;;4982247;28;20310;-67
2021/04/25 09:53:34;;;;;;;3.35;1.00;;;;;;;;;;4995572;28;20183;-68
2021/04/25 09:55:59;;;;;;;5.20;1.10;;;;;;;;;;4986012;28;20642;-68
2021/04/25 09:58:27;;;;;;;6.50;1.40;;;;;;;;;;4991869;28;20213;-68
2021/04/25 10:00:53;;;;;;;8.90;1.27;;;;;;;;;;4990801;28;20218;-68
2021/04/25 10:03:19;;;;;;;4.38;1.30;;;;;;;;;;4994557;28;20730;-68
2021/04/25 10:06:06;;;;;;;4.72;1.08;;;;;;;;;;4987879;28;20182;-68
2021/04/25 10:08:33;;;;;;;5.40;1.30;;;;;;;;;;4993837;28;20191;-68
2021/04/25 10:11:03;;;;;;;6.15;1.02;;;;;;;;;;4991018;28;20265;-68
2021/04/25 10:13:33;;;;;;;4.32;0.93;;;;;;;;;;4992525;28;20309;-69
2021/04/25 10:15:59;;;;;;;7.60;1.10;;;;;;;;;;4983269;28;20191;-68
2021/04/25 10:18:25;;;;;;;9.63;1.58;;;;;;;;;;4993727;28;20302;-68
2021/04/25 10:20:53;;;;;;;5.90;1.15;;;;;;;;;;4985504;28;20190;-68
2021/04/25 10:23:19;;;;;;;4.07;1.17;;;;;;;;;;4988642;28;20578;-68
2021/04/25 10:25:45;;;;;;;5.60;1.27;;;;;;;;;;4982837;28;20207;-68
2021/04/25 10:28:18;;;;;;;7.53;1.17;;;;;;;;;;4990792;28;20311;-68
2021/04/25 10:30:46;;;;;;;8.65;1.20;;;;;;;;;;4990494;28;20262;-68
2021/04/25 10:33:11;;;;;;;3.85;1.10;;;;;;;;;;4977244;28;20203;-69
2021/04/25 10:35:37;;;;;;;4.15;1.30;;;;;;;;;;4993311;28;20704;-68
2021/04/25 10:38:06;;;;;;;7.47;1.10;;;;;;;;;;4980264;28;20242;-69
2021/04/25 10:40:44;;;;;;;7.18;1.25;;;;;;;;;;4993971;28;20187;-68
2021/04/25 10:43:11;;;;;;;5.47;1.40;;;;;;;;;;4982402;28;20191;-68
2021/04/25 10:45:58;;;;;;;4.85;1.55;;;;;;;;;;4993703;28;20231;-69
2021/04/25 10:48:25;;;;;;;3.08;1.33;;;;;;;;;;4979070;28;20697;-69
2021/04/25 10:50:53;;;;;;;4.35;1.10;;;;;;;;;;4989761;28;20270;-69
2021/04/25 10:53:23;;;;;;;6.05;1.30;;;;;;;;;;4978096;28;20195;-69
2021/04/25 10:55:50;;;;;;;8.73;1.42;;;;;;;;;;4997878;28;20252;-69
2021/04/25 10:58:20;;;;;;;8.45;1.85;;;;;;;;;;4981470;28;20203;-68
2021/04/25 11:00:46;;;;;;;8.75;1.23;;;;;;;;;;4988993;28;20317;-68
2021/04/25 11:03:37;;;;;;;7.70;1.40;;;;;;;;;;4981443;28;20393;-68
2021/04/25 11:06:03;;;;;;;8.85;1.95;;;;;;;;;;4987409;28;20195;-68
2021/04/25 11:08:28;;;;;;;11.52;1.63;;;;;;;;;;4984694;28;20273;-68
2021/04/25 11:11:09;;;;;;;5.03;1.48;;;;;;;;;;4992980;28;20211;-68
2021/04/25 11:13:43;;;;;;;4.15;1.20;;;;;;;;;;4985062;28;20302;-68
2021/04/25 11:18:56;;;;;;;8.25;1.85;;;;;;;;;;4985507;28;20721;-68
2021/04/25 11:21:37;;;;;;;8.02;1.67;;;;;;;;;;4997436;28;20230;-68
2021/04/25 11:24:06;;;;;;;7.97;1.65;;;;;;;;;;4987937;28;20299;-69
2021/04/25 11:26:37;;;;;;;4.65;1.60;;;;;;;;;;4998252;28;20198;-68
2021/04/25 11:29:20;;;;;;;9.45;1.83;;;;;;;;;;4982013;28;20370;-68
2021/04/25 11:34:32;;;;;;;6.50;1.40;;;;;;;;;;4986537;28;20766;-68
2021/04/25 11:37:02;;;;;;;4.40;1.20;;;;;;;;;;4993068;28;20282;-69
2021/04/25 11:39:28;;;;;;;8.00;1.45;;;;;;;;;;4986925;28;20194;-68
2021/04/25 11:41:55;;;;;;;6.90;1.83;;;;;;;;;;4991898;28;20274;-68
2021/04/25 11:44:29;;;;;;;9.60;1.33;;;;;;;;;;4999702;28;20617;-69
2021/04/25 11:46:55;;;;;;;6.07;1.48;;;;;;;;;;4982898;28;20230;-67
2021/04/25 11:49:34;;;;;;;6.45;1.40;;;;;;;;;;4994977;28;20658;-67
2021/04/25 11:52:07;;;;;;;5.05;1.63;;;;;;;;;;4981875;28;20186;-68
2021/04/25 11:54:33;;;;;;;5.53;1.63;;;;;;;;;;4989668;28;20253;-68
2021/04/25 11:57:11;;;;;;;5.93;1.10;;;;;;;;;;4982472;28;20221;-67
2021/04/25 11:59:49;;;;;;;7.72;1.67;;;;;;;;;;4994181;28;20202;-69
2021/04/25 12:02:15;;;;;;;10.43;1.52;;;;;;;;;;4985391;28;20568;-68
2021/04/25 12:04:47;;;;;;;8.27;1.63;;;;;;;;;;4995909;28;20191;-69
2021/04/25 12:07:12;;;;;;;9.82;1.60;;;;;;;;;;4982017;28;20206;-69
2021/04/25 12:09:38;;;;;;;9.77;1.45;;;;;;;;;;4992803;28;20556;-69
2021/04/25 12:12:06;;;;;;;4.78;1.92;;;;;;;;;;4988697;28;20199;-69
2021/04/25 12:14:32;;;;;;;5.97;1.40;;;;;;;;;;4996596;28;20535;-69
2021/04/25 12:17:13;;;;;;;7.82;1.80;;;;;;;;;;4982141;28;20195;-69
2021/04/25 12:19:39;;;;;;;6.07;1.75;;;;;;;;;;4998274;28;20211;-69
2021/04/25 12:22:05;;;;;;;7.80;1.48;;;;;;;;;;4983255;28;20202;-68
2021/04/25 12:24:31;;;;;;;7.10;1.13;;;;;;;;;;4998094;28;20179;-69
2021/04/25 12:26:57;;;;;;;7.00;1.55;;;;;;;;;;4982350;28;20206;-68
2021/04/25 12:29:36;;;;;;;6.18;1.45;;;;;;;;;;5002666;28;20170;-68
2021/04/25 12:32:03;;;;;;;6.18;1.55;;;;;;;;;;4998928;28;20210;-68
2021/04/25 12:34:29;;;;;;;5.68;1.60;;;;;;;;;;4990185;28;20184;-69
2021/04/25 12:36:55;;;;;;;3.10;1.25;;;;;;;;;;4991426;28;20553;-69
2021/04/25 12:39:21;;;;;;;9.73;1.67;;;;;;;;;;4986952;28;20215;-69
2021/04/25 12:41:49;;;;;;;5.45;1.52;;;;;;;;;;4992300;28;20549;-69
2021/04/25 12:44:16;;;;;;;6.32;1.55;;;;;;;;;;4981989;28;20544;-69
2021/04/25 12:46:53;;;;;;;8.00;1.45;;;;;;;;;;5013115;28;20223;-69
2021/04/25 12:49:19;;;;;;;6.97;1.60;;;;;;;;;;4986720;28;20187;-68
2021/04/25 12:51:48;;;;;;;5.90;1.92;;;;;;;;;;4994985;28;20188;-69
2021/04/25 12:54:16;;;;;;;3.33;1.00;;;;;;;;;;4984200;28;20285;-68
2021/04/25 12:56:43;;;;;;;4.82;1.35;;;;;;;;;;4995134;28;20203;-68
2021/04/25 12:59:14;;;;;;;5.13;1.50;;;;;;;;;;4981481;28;20227;-68
2021/04/25 13:01:45;;;;;;;5.90;1.40;;;;;;;;;;4992292;28;20223;-69
2021/04/25 13:04:29;;;;;;;7.15;1.80;;;;;;;;;;4989230;28;20195;-69
2021/04/25 13:07:17;;;;;;;4.15;1.30;;;;;;;;;;4993547;28;20233;-69
2021/04/25 13:09:44;;;;;;;9.18;1.92;;;;;;;;;;4984216;28;20184;-69
2021/04/25 13:12:21;;;;;;;6.60;1.48;;;;;;;;;;4997008;28;20662;-68
2021/04/25 13:14:54;;;;;;;4.82;1.23;;;;;;;;;;4985823;28;20229;-69
2021/04/25 13:17:24;;;;;;;6.07;1.63;;;;;;;;;;4995690;28;20187;-69
2021/04/25 13:19:49;;;;;;;6.00;1.48;;;;;;;;;;4986827;28;20218;-69
2021/04/25 13:22:14;;;;;;;4.78;1.50;;;;;;;;;;4992473;28;20192;-69
2021/04/25 13:24:40;;;;;;;6.00;1.30;;;;;;;;;;5002466;28;20187;-68
2021/04/25 13:27:05;;;;;;;6.47;1.48;;;;;;;;;;4987443;28;20242;-69
2021/04/25 13:29:30;;;;;;;8.00;1.77;;;;;;;;;;4998677;28;20179;-68
2021/04/25 13:31:56;;;;;;;6.38;1.30;;;;;;;;;;4987063;28;20178;-69
2021/04/25 13:34:21;;;;;;;2.72;1.48;;;;;;;;;;4998384;28;20217;-68
2021/04/25 13:36:46;;;;;;;3.70;1.40;;;;;;;;;;4989804;28;20274;-68
2021/04/25 13:39:13;;;;;;;5.05;1.70;;;;;;;;;;4998575;28;20199;-68
2021/04/25 13:41:40;;;;;;;5.55;1.13;;;;;;;;;;4986942;28;20270;-68
2021/04/25 13:44:10;;;;;;;8.20;1.65;;;;;;;;;;4990251;28;20233;-69
2021/04/25 13:46:37;;;;;;;6.60;1.48;;;;;;;;;;4986796;28;20258;-69
2021/04/25 13:49:04;;;;;;;6.40;1.83;;;;;;;;;;4995790;28;20646;-69
2021/04/25 13:51:32;;;;;;;7.97;1.60;;;;;;;;;;4987051;28;20207;-69
2021/04/25 13:53:58;;;;;;;8.07;1.55;;;;;;;;;;4992234;28;20190;-69
2021/04/25 13:56:25;;;;;;;6.35;1.70;;;;;;;;;;4989921;28;20305;-69
2021/04/25 13:58:50;;;;;;;6.45;1.85;;;;;;;;;;4997567;28;20943;-69
2021/04/25 14:01:16;;;;;;;8.82;1.75;;;;;;;;;;4996673;28;20219;-69
2021/04/25 14:03:41;;;;;;;8.85;1.38;;;;;;;;;;4985126;28;20286;-69
2021/04/25 14:06:07;;;;;;;5.70;1.65;;;;;;;;;;4997010;28;20186;-69
2021/04/25 14:08:32;;;;;;;6.95;1.73;;;;;;;;;;4988548;28;20278;-69
2021/04/25 14:10:57;;;;;;;8.65;2.00;;;;;;;;;;4995766;28;20187;-70
2021/04/25 14:13:24;;;;;;;8.90;1.95;;;;;;;;;;4990488;28;20183;-69
2021/04/25 14:15:49;;;;;;;3.22;1.25;;;;;;;;;;4997400;28;20677;-69
2021/04/25 14:18:16;;;;;;;6.32;1.50;;;;;;;;;;4991100;28;20224;-69
2021/04/25 14:20:41;;;;;;;5.50;1.58;;;;;;;;;;4998423;28;20183;-69
2021/04/25 14:23:06;;;;;;;8.38;1.50;;;;;;;;;;4992737;28;20249;-69
2021/04/25 14:25:32;;;;;;;10.70;1.65;;;;;;;;;;4994648;28;20201;-69
2021/04/25 14:27:59;;;;;;;6.25;1.77;;;;;;;;;;4993636;28;20194;-69
2021/04/25 14:30:29;;;;;;;4.55;1.40;;;;;;;;;;4998417;28;20190;-69
2021/04/25 14:32:55;;;;;;;5.93;1.40;;;;;;;;;;4989436;28;20190;-68
2021/04/25 14:35:22;;;;;;;7.32;1.70;;;;;;;;;;4987854;28;20195;-69
2021/04/25 14:37:47;;;;;;;7.68;1.38;;;;;;;;;;4993701;28;20630;-69
2021/04/25 14:40:15;;;;;;;6.10;1.70;;;;;;;;;;4986868;28;20215;-68
2021/04/25 14:42:42;;;;;;;6.60;1.70;;;;;;;;;;4999014;28;20222;-68
2021/04/25 14:45:09;;;;;;;7.13;1.77;;;;;;;;;;4984930;28;20246;-69